Meteo Giornale » Osservazioni meteo Stati Uniti (USA) » Burley
ore: 18:53 - Osservazioni Meteo Burley
Lat. 42° 32' N Lon. 113° 46' W Alt. 1265 metri s.l.m.
28 °C
Foschia
Temp. 24 Ore
7 °C
29 °C
Nord-Est
16.7 Km/h
Dew point 6 °C
Umidità 24 %
Visibilità 0 Km
Il sole sorge alle ore 06:59
Il sole tramonta alle ore 20:11
| Data e Ora | Cielo e Fenomeni | T °C | DP °C | Um. % | Pres. hPa | Vis. km | Vento km/h | |
|---|---|---|---|---|---|---|---|---|
| Oggi h: 18:53 | Foschia | 28 | 6 | 24 | 1012 | 0 | NE 16.7 | |
| Oggi h: 17:53 | Foschia | 29 | 6 | 23 | 1013 | 0 | NE 14.8 | |
| Oggi h: 17:02 | Foschia | 29 | 4 | 20 | 1013 | 0 | NE 11.1 | |
| Oggi h: 16:53 | Foschia | 29 | 4 | 20 | 1013 | 2 | NE 14.8 | |
| Oggi h: 15:53 | Sereno | 28 | 4 | 21 | 1014 | 10 | E/NE 13 | |
| Oggi h: 14:53 | Sereno | 27 | 3 | 21 | 1015 | 10 | E/NE 16.7 | |
| Oggi h: 13:53 | Sereno | 26 | 2 | 20 | 1016 | 10 | N/NE 13 | |
| Oggi h: 12:53 | Sereno | 24 | 0 | 20 | 1017 | 10 | E/NE 13 | |
| Oggi h: 11:53 | Sereno | 22 | -1 | 21 | 1018 | 10 | E 16.7 | |
| Oggi h: 10:53 | Sereno | 19 | 2 | 32 | 1018 | 10 | E/NE 14.8 | |
| Oggi h: 09:53 | Sereno | 16 | 7 | 55 | 1018 | 10 | N/NE 11.1 | |
| Oggi h: 08:53 | Sereno | 12 | 6 | 66 | 1019 | 10 | N 5.5 | |
| Oggi h: 07:53 | Sereno | 9 | 5 | 75 | 1019 | 10 | N 0 | |
| Oggi h: 06:53 | Sereno | 7 | 3 | 75 | 1018 | 10 | N 5.5 | |
| Oggi h: 05:53 | Sereno | 8 | 2 | 65 | 1018 | 10 | N 0 | |
| Oggi h: 04:53 | Sereno | 8 | 2 | 65 | 1018 | 10 | N 0 | |
| Oggi h: 03:53 | Sereno | 9 | 3 | 66 | 1018 | 10 | S/SO 7.4 | |
| Oggi h: 02:53 | Sereno | 9 | 3 | 66 | 1018 | 10 | N 5.5 | |
| Oggi h: 01:53 | Sereno | 9 | 3 | 66 | 1018 | 10 | S/SO 9.3 | |
| Oggi h: 00:53 | Sereno | 11 | 3 | 57 | 1018 | 10 | N 5.5 | |
| Ieri h: 23:53 | Sereno | 11 | 4 | 61 | 1018 | 10 | SO 11.1 | |
| Ieri h: 22:53 | Sereno | 13 | 3 | 50 | 1018 | 10 | S 13 | |
| Ieri h: 21:53 | Sereno | 15 | 2 | 41 | 1018 | 10 | O/SO 11.1 | |
| Ieri h: 20:53 | Sereno | 17 | 0 | 31 | 1017 | 10 | SO 7.4 | |
| Ieri h: 19:53 | Sereno | 19 | -1 | 25 | 1017 | 10 | O/SO 11.1 | |



